Hovedside
METAR-TAF:

METAR-TAF

Lufthavner :

Vasa, Finland

Vasa lufthavn

breddegrad: 63-03N, lengdegrad: 021-46E, høyde over havet: 4 m

Gjeldene værobservasjon

Denne rapporten ble laget for 19 minutter siden, klokken 22:20 UTC
Vind 4 kt fra Nord-nordøst
Temperatur 14°C
Luftfuktighet 88%
Trykk 1015 hPa
Sikt 10 km eller mer

METAR: EFVA 242220Z AUTO 03004KT 9999 OVC034/// 14/12 Q1015

Tid: 01:39 (22:39 UTC)

Varsel

Denne rapporten ble laget for 2 timer og 13 minutter siden, klokken 20:26 UTC
Varsel gyldig fra 24. klokken 21 UTC til 25. klokken 21 UTC
Vind 7 kt fra Nord-nordøst
Sikt 10 km eller mer
Brutte skyer i en høyde av 2500 ft

TAF: EFVA 242026Z 2421/2521 03007KT 9999 BKN025

Værobservasjoner og værvarsel for over 4000 flyplasser (METAR- og TAF-rapporter).

Tilgjengelige stasjoner er representert av de røde og gule prikkene på kartet.

Hold musepekeren over prikken for å se navnet på stasjonen.

Klikk så for å se værobservasjoner og -varsler.

For å forandre kartet kan du klikke på den grønne knappen med svart kryss for å zoome inn, på den grønne knappen med strek for å zoome ut, eller på de grønne pilene for å se tilstøtende kart.


METAR-TAF: